Time;durP1;ratioP1;P1;durP2;ratioP2;P2;SDS_P1;SDS_P2;PMS_P1;PMS_P2;Temp;Humidity;BMP_temperature;BMP_pressure;BME280_temperature;BME280_humidity;BME280_pressure;Samples;Min_cycle;Max_cycle;Signal;HPM_P1;HPM_P2
2022/09/12 00:02:42;;;;;;;;;;;25.00;50.10;23.80;101381.00;;;;5099550;27;19915;-66
2022/09/12 00:05:29;;;;;;;;;;;24.90;50.10;23.80;101380.00;;;;5104407;27;19915;-66
2022/09/12 00:08:15;;;;;;;;;;;25.00;50.10;23.80;101379.00;;;;5096457;27;19916;-66
2022/09/12 00:11:06;;;;;;;;;;;24.90;50.10;23.80;101378.00;;;;5093795;27;19989;-66
2022/09/12 00:13:57;;;;;;;;;;;24.90;50.10;23.80;101381.00;;;;5110997;27;19922;-66
2022/09/12 00:16:43;;;;;;;;;;;24.90;50.10;23.80;101372.00;;;;5096944;27;19916;-66
2022/09/12 00:19:29;;;;;;;;;;;24.90;50.10;23.70;101374.00;;;;5098436;27;19915;-66
2022/09/12 00:22:15;;;;;;;;;;;24.90;50.10;23.70;101375.00;;;;5096080;27;19912;-66
2022/09/12 00:25:01;;;;;;;;;;;24.90;50.10;23.70;101377.00;;;;5105429;27;19911;-66
2022/09/12 00:27:47;;;;;;;;;;;24.90;50.10;23.70;101362.00;;;;5101231;28;19912;-66
2022/09/12 00:30:33;;;;;;;;;;;24.90;50.10;23.70;101366.00;;;;5103334;27;20527;-66
2022/09/12 00:33:19;;;;;;;;;;;24.90;50.10;23.70;101359.00;;;;5098763;27;19911;-66
2022/09/12 00:36:07;;;;;;;;;;;24.90;50.10;23.70;101369.00;;;;5101316;28;19919;-66
2022/09/12 00:38:53;;;;;;;;;;;24.90;50.10;23.70;101363.00;;;;5101585;27;20357;-66
2022/09/12 00:41:39;;;;;;;;;;;24.90;50.10;23.70;101361.00;;;;5081398;28;20591;-66
2022/09/12 00:44:25;;;;;;;;;;;24.90;50.10;23.70;101356.00;;;;5102146;28;19911;-66
2022/09/12 00:47:26;;;;;;;;;;;24.90;50.00;23.70;101356.00;;;;5094661;28;20006;-67
2022/09/12 00:50:12;;;;;;;;;;;24.90;50.10;23.70;101351.00;;;;5083997;28;20365;-66
2022/09/12 00:53:03;;;;;;;;;;;24.90;50.10;23.70;101347.00;;;;5087644;28;19918;-66
2022/09/12 00:55:49;;;;;;;;;;;24.90;50.00;23.70;101343.00;;;;5075531;28;19911;-66
2022/09/12 00:58:38;;;;;;;;;;;24.90;50.10;23.70;101346.00;;;;5084750;28;19923;-66
2022/09/12 01:01:24;;;;;;;;;;;24.90;50.10;23.70;101345.00;;;;5083901;28;19912;-66
2022/09/12 01:04:10;;;;;;;;;;;24.80;50.00;23.70;101342.00;;;;5097583;28;19955;-66
2022/09/12 01:06:56;;;;;;;;;;;24.90;50.00;23.70;101343.00;;;;5089053;28;20098;-66
2022/09/12 01:09:43;;;;;;;;;;;24.90;50.00;23.70;101343.00;;;;5080917;28;20365;-66
2022/09/12 01:12:29;;;;;;;;;;;24.80;50.00;23.70;101345.00;;;;5090410;28;20410;-66
2022/09/12 01:15:16;;;;;;;;;;;24.80;50.00;23.70;101339.00;;;;5105497;27;20011;-66
2022/09/12 01:18:17;;;;;;;;;;;24.80;50.00;23.70;101348.00;;;;5097916;27;20431;-66
2022/09/12 01:21:14;;;;;;;;;;;24.80;50.00;23.70;101345.00;;;;5084599;28;20380;-66
2022/09/12 01:24:25;;;;;;;;;;;24.80;50.00;23.70;101340.00;;;;5101493;27;20007;-66
2022/09/12 01:27:52;;;;;;;;;;;24.80;50.00;23.60;101344.00;;;;5101214;27;20027;-66
2022/09/12 01:30:42;;;;;;;;;;;24.80;50.00;23.60;101345.00;;;;5056256;28;20007;-66
2022/09/12 01:33:40;;;;;;;;;;;24.80;50.00;23.60;101343.00;;;;5058122;28;19962;-66
2022/09/12 01:36:38;;;;;;;;;;;24.80;50.00;23.60;101334.00;;;;5094077;27;19930;-66
2022/09/12 01:39:43;;;;;;;;;;;24.80;50.00;23.60;101340.00;;;;5086445;28;19970;-66
2022/09/12 01:42:39;;;;;;;;;;;24.80;50.00;23.60;101337.00;;;;5096693;28;19912;-66
2022/09/12 01:45:31;;;;;;;;;;;24.80;50.10;23.60;101328.00;;;;5088140;27;20352;-66
2022/09/12 01:48:23;;;;;;;;;;;24.80;50.00;23.60;101326.00;;;;5103021;27;19950;-66
2022/09/12 01:51:25;;;;;;;;;;;24.80;50.00;23.60;101326.00;;;;5093849;27;19990;-66
2022/09/12 01:54:24;;;;;;;;;;;24.80;50.00;23.60;101315.00;;;;5079984;27;19969;-66
2022/09/12 01:57:15;;;;;;;;;;;24.80;50.00;23.60;101321.00;;;;5090039;28;20272;-66
2022/09/12 02:00:05;;;;;;;;;;;24.80;50.00;23.60;101311.00;;;;5087584;28;19965;-66
2022/09/12 02:03:01;;;;;;;;;;;24.80;50.00;23.60;101304.00;;;;5095545;28;19916;-66
2022/09/12 02:05:58;;;;;;;;;;;24.80;50.00;23.60;101306.00;;;;5082630;28;19911;-66
2022/09/12 02:08:47;;;;;;;;;;;24.80;50.00;23.60;101310.00;;;;5102416;28;20278;-66
2022/09/12 02:11:34;;;;;;;;;;;24.80;50.00;23.60;101305.00;;;;5105378;28;20028;-66
2022/09/12 02:14:23;;;;;;;;;;;24.80;50.00;23.60;101306.00;;;;5086425;27;19919;-66
2022/09/12 02:17:10;;;;;;;;;;;24.70;49.90;23.60;101300.00;;;;5085897;27;19940;-66
2022/09/12 02:20:21;;;;;;;;;;;24.80;50.00;23.60;101302.00;;;;5103513;27;20004;-66
2022/09/12 02:23:09;;;;;;;;;;;24.80;50.00;23.60;101300.00;;;;5088981;27;19911;-66
2022/09/12 02:25:56;;;;;;;;;;;24.80;50.00;23.60;101303.00;;;;5104657;28;19911;-66
2022/09/12 02:28:42;;;;;;;;;;;24.80;50.00;23.60;101303.00;;;;5085943;27;19958;-66
2022/09/12 02:31:56;;;;;;;;;;;24.80;50.00;23.60;101307.00;;;;5100051;27;19946;-66
2022/09/12 02:34:58;;;;;;;;;;;24.80;50.00;23.60;101302.00;;;;5102814;27;19960;-66
2022/09/12 02:38:06;;;;;;;;;;;24.80;50.00;23.60;101299.00;;;;5103156;27;19955;-66
2022/09/12 02:40:52;;;;;;;;;;;24.80;50.00;23.60;101291.00;;;;5099163;27;19923;-66
2022/09/12 02:43:39;;;;;;;;;;;24.70;49.90;23.60;101293.00;;;;5102878;27;20321;-66
2022/09/12 02:46:28;;;;;;;;;;;24.80;50.00;23.60;101283.00;;;;5093646;27;20307;-66
2022/09/12 02:49:14;;;;;;;;;;;24.70;50.00;23.50;101280.00;;;;5103712;27;19912;-66
2022/09/12 02:52:00;;;;;;;;;;;24.70;49.90;23.60;101286.00;;;;5103107;27;19922;-66
2022/09/12 02:54:46;;;;;;;;;;;24.70;49.90;23.50;101280.00;;;;5083331;28;20048;-66
2022/09/12 02:57:32;;;;;;;;;;;24.70;49.90;23.50;101287.00;;;;5081369;27;19915;-66
2022/09/12 03:00:18;;;;;;;;;;;24.70;49.90;23.50;101281.00;;;;5100114;27;19915;-66
2022/09/12 03:03:44;;;;;;;;;;;24.70;49.90;23.50;101281.00;;;;5083019;28;19916;-66
2022/09/12 03:06:43;;;;;;;;;;;24.70;49.90;23.50;101278.00;;;;5081818;27;19917;-66
2022/09/12 03:09:37;;;;;;;;;;;24.70;49.90;23.50;101278.00;;;;5104923;27;19912;-66
2022/09/12 03:12:26;;;;;;;;;;;24.70;49.90;23.50;101272.00;;;;5075852;28;19918;-66
2022/09/12 03:15:12;;;;;;;;;;;24.60;49.90;23.50;101274.00;;;;5092660;27;19973;-66
2022/09/12 03:18:07;;;;;;;;;;;24.70;49.90;23.50;101272.00;;;;5091441;28;20359;-66
2022/09/12 03:21:17;;;;;;;;;;;24.70;49.90;23.50;101267.00;;;;5097975;28;20373;-66
2022/09/12 03:24:16;;;;;;;;;;;24.70;49.90;23.50;101267.00;;;;5084442;28;19919;-66
2022/09/12 03:27:07;;;;;;;;;;;24.70;49.90;23.50;101264.00;;;;5094617;27;20032;-66
2022/09/12 03:29:53;;;;;;;;;;;24.70;49.90;23.50;101268.00;;;;5101164;27;19990;-66
2022/09/12 03:32:50;;;;;;;;;;;24.70;49.90;23.50;101279.00;;;;5077710;28;20246;-66
2022/09/12 03:35:36;;;;;;;;;;;24.60;49.90;23.50;101274.00;;;;5101814;27;20011;-66
2022/09/12 03:38:22;;;;;;;;;;;24.70;49.90;23.50;101265.00;;;;5108954;27;19916;-66
2022/09/12 03:41:08;;;;;;;;;;;24.80;50.00;23.50;101274.00;;;;5098467;27;19927;-66
2022/09/12 03:43:55;;;;;;;;;;;24.70;49.90;23.50;101272.00;;;;5104930;27;20056;-65
2022/09/12 03:46:41;;;;;;;;;;;24.70;49.90;23.50;101268.00;;;;5100602;27;19912;-66
2022/09/12 03:49:27;;;;;;;;;;;24.70;49.90;23.50;101269.00;;;;5102522;27;19915;-66
2022/09/12 03:52:13;;;;;;;;;;;24.60;49.80;23.50;101273.00;;;;5097140;28;20554;-66
2022/09/12 03:54:59;;;;;;;;;;;24.70;49.90;23.50;101272.00;;;;5101508;27;20276;-66
2022/09/12 03:57:45;;;;;;;;;;;24.60;49.90;23.50;101276.00;;;;5093065;28;20365;-66
2022/09/12 04:00:32;;;;;;;;;;;24.70;49.90;23.50;101265.00;;;;5095386;28;20345;-66
2022/09/12 04:03:18;;;;;;;;;;;24.60;49.90;23.50;101272.00;;;;5090456;28;19922;-66
2022/09/12 04:06:04;;;;;;;;;;;24.60;49.80;23.50;101260.00;;;;5100872;28;19912;-66
2022/09/12 04:08:51;;;;;;;;;;;24.60;49.80;23.50;101266.00;;;;5095009;28;19915;-66
2022/09/12 04:11:37;;;;;;;;;;;24.70;49.90;23.50;101257.00;;;;5085031;27;19998;-66
2022/09/12 04:14:23;;;;;;;;;;;24.60;49.80;23.40;101256.00;;;;5093694;27;19916;-66
2022/09/12 04:17:09;;;;;;;;;;;24.60;49.90;23.40;101255.00;;;;5097967;27;20352;-66
2022/09/12 04:19:55;;;;;;;;;;;24.70;49.90;23.40;101257.00;;;;5093565;27;20269;-66
2022/09/12 04:22:41;;;;;;;;;;;24.60;50.10;23.40;101252.00;;;;5096663;28;19990;-66
2022/09/12 04:25:28;;;;;;;;;;;24.60;49.80;23.40;101256.00;;;;5101718;27;19911;-66
2022/09/12 04:28:14;;;;;;;;;;;24.60;49.80;23.40;101244.00;;;;5095551;27;19916;-66
2022/09/12 04:31:04;;;;;;;;;;;24.60;49.80;23.40;101252.00;;;;5102424;27;19920;-66
2022/09/12 04:33:57;;;;;;;;;;;24.60;49.80;23.40;101251.00;;;;5098535;27;19915;-66
2022/09/12 04:36:43;;;;;;;;;;;24.60;49.80;23.40;101253.00;;;;5099942;28;20276;-66
2022/09/12 04:39:29;;;;;;;;;;;24.60;49.80;23.40;101254.00;;;;5096557;28;19920;-66
2022/09/12 04:42:15;;;;;;;;;;;24.60;49.80;23.40;101263.00;;;;5092948;28;19939;-66
2022/09/12 04:45:02;;;;;;;;;;;24.60;49.80;23.40;101256.00;;;;5095851;28;20185;-66
2022/09/12 04:47:48;;;;;;;;;;;24.60;49.80;23.40;101257.00;;;;5090589;28;20422;-66
2022/09/12 04:50:34;;;;;;;;;;;24.60;49.80;23.40;101253.00;;;;5106843;28;19911;-66
2022/09/12 04:53:20;;;;;;;;;;;24.60;49.80;23.40;101251.00;;;;5100128;28;19919;-66
2022/09/12 04:56:07;;;;;;;;;;;24.50;49.70;23.40;101253.00;;;;5101705;28;19915;-66
2022/09/12 04:58:55;;;;;;;;;;;24.60;49.80;23.40;101247.00;;;;5071914;28;19961;-66
2022/09/12 05:01:41;;;;;;;;;;;24.50;49.70;23.40;101245.00;;;;5082824;28;20428;-66
2022/09/12 05:04:27;;;;;;;;;;;24.60;49.80;23.40;101244.00;;;;5094031;28;19986;-66
2022/09/12 05:07:13;;;;;;;;;;;24.60;49.80;23.40;101249.00;;;;5093532;28;19919;-66
2022/09/12 05:09:59;;;;;;;;;;;24.60;49.80;23.40;101255.00;;;;5081755;28;19958;-66
2022/09/12 05:12:46;;;;;;;;;;;24.60;49.70;23.40;101247.00;;;;5088445;28;19917;-66
2022/09/12 05:15:32;;;;;;;;;;;24.60;49.80;23.40;101237.00;;;;5092920;28;19984;-66
2022/09/12 05:18:18;;;;;;;;;;;24.60;49.70;23.40;101244.00;;;;5098873;28;19962;-66
2022/09/12 05:21:05;;;;;;;;;;;24.60;49.70;23.40;101244.00;;;;5096176;28;19912;-66
2022/09/12 05:23:55;;;;;;;;;;;24.60;49.70;23.40;101235.00;;;;5101465;28;19916;-66
2022/09/12 05:26:41;;;;;;;;;;;24.60;49.80;23.40;101240.00;;;;5095641;28;19920;-66
2022/09/12 05:29:27;;;;;;;;;;;24.60;49.70;23.40;101235.00;;;;5103242;28;19911;-66
2022/09/12 05:32:13;;;;;;;;;;;24.60;49.70;23.40;101237.00;;;;5100686;28;20228;-66
2022/09/12 05:34:59;;;;;;;;;;;24.60;49.70;23.30;101233.00;;;;5100775;28;20011;-66
2022/09/12 05:37:45;;;;;;;;;;;24.60;49.70;23.30;101229.00;;;;5098459;28;20019;-66
2022/09/12 05:40:31;;;;;;;;;;;24.60;49.70;23.40;101232.00;;;;5094362;28;19935;-66
2022/09/12 05:43:19;;;;;;;;;;;24.50;49.70;23.30;101230.00;;;;5090018;28;19915;-66
2022/09/12 05:46:10;;;;;;;;;;;24.50;49.60;23.30;101231.00;;;;5101902;28;19916;-66
2022/09/12 05:48:57;;;;;;;;;;;24.60;49.70;23.30;101233.00;;;;5075354;28;20223;-66
2022/09/12 05:51:44;;;;;;;;;;;24.60;49.70;23.30;101231.00;;;;5086579;28;19915;-66
2022/09/12 05:54:30;;;;;;;;;;;24.50;49.60;23.30;101241.00;;;;5094980;28;20361;-66
2022/09/12 05:57:15;;;;;;;;;;;24.50;49.60;23.30;101246.00;;;;5103970;27;19997;-66
2022/09/12 06:00:04;;;;;;;;;;;24.50;49.70;23.30;101247.00;;;;5091044;28;20265;-66
2022/09/12 06:02:52;;;;;;;;;;;24.50;49.70;23.30;101254.00;;;;5097765;28;20395;-66
2022/09/12 06:05:38;;;;;;;;;;;24.50;49.60;23.30;101260.00;;;;5102171;28;20224;-66
2022/09/12 06:08:24;;;;;;;;;;;24.50;49.60;23.30;101261.00;;;;5092365;28;19916;-66
2022/09/12 06:11:13;;;;;;;;;;;24.50;49.60;23.30;101253.00;;;;5104711;27;19911;-66
2022/09/12 06:13:59;;;;;;;;;;;24.50;49.60;23.30;101252.00;;;;5090200;28;20349;-66
2022/09/12 06:16:46;;;;;;;;;;;24.50;49.60;23.30;101254.00;;;;5097779;28;19916;-66
2022/09/12 06:19:32;;;;;;;;;;;24.60;49.70;23.30;101249.00;;;;5100159;28;20323;-66
2022/09/12 06:22:18;;;;;;;;;;;24.60;49.70;23.30;101252.00;;;;5098699;27;19919;-66
2022/09/12 06:25:05;;;;;;;;;;;24.60;49.70;23.30;101250.00;;;;5110628;27;19912;-66
2022/09/12 06:27:51;;;;;;;;;;;24.60;49.70;23.30;101246.00;;;;5094169;28;20202;-66
2022/09/12 06:30:37;;;;;;;;;;;24.60;49.60;23.30;101238.00;;;;5095975;28;19919;-66
2022/09/12 06:33:23;;;;;;;;;;;24.40;49.60;23.30;101245.00;;;;5102020;27;20371;-66
2022/09/12 06:36:10;;;;;;;;;;;24.50;50.20;23.40;101236.00;;;;5092909;27;19911;-66
2022/09/12 06:38:58;;;;;;;;;;;24.60;49.60;23.40;101233.00;;;;5101868;28;19923;-66
2022/09/12 06:41:44;;;;;;;;;;;24.60;49.70;23.40;101230.00;;;;5095803;28;20502;-66
2022/09/12 06:44:30;;;;;;;;;;;24.50;49.50;23.40;101235.00;;;;5102067;28;19917;-69
2022/09/12 06:47:16;;;;;;;;;;;24.70;49.60;23.40;101239.00;;;;5097801;28;20376;-67
2022/09/12 06:50:02;;;;;;;;;;;24.60;49.60;23.40;101232.00;;;;5090900;28;19919;-66
2022/09/12 06:52:49;;;;;;;;;;;24.60;49.60;23.40;101238.00;;;;5097507;28;19929;-66
2022/09/12 06:55:35;;;;;;;;;;;24.60;49.60;23.40;101249.00;;;;5102385;28;19923;-66
2022/09/12 06:58:21;;;;;;;;;;;24.70;49.60;23.40;101240.00;;;;5098364;28;19916;-66
2022/09/12 07:01:40;;;;;;;;;;;24.60;49.50;23.40;101244.00;;;;5095899;28;19969;-66
2022/09/12 07:04:26;;;;;;;;;;;24.60;49.60;23.40;101247.00;;;;5088211;28;19919;-66
2022/09/12 07:07:13;;;;;;;;;;;24.60;49.50;23.40;101247.00;;;;5105222;27;19923;-66
2022/09/12 07:09:59;;;;;;;;;;;24.70;49.60;23.40;101246.00;;;;5100805;27;19911;-66
2022/09/12 07:12:46;;;;;;;;;;;24.60;49.50;23.40;101240.00;;;;5097163;27;19923;-66
2022/09/12 07:15:33;;;;;;;;;;;24.60;49.50;23.40;101243.00;;;;5100058;28;20280;-66
2022/09/12 07:18:20;;;;;;;;;;;24.60;49.50;23.40;101247.00;;;;5093537;27;19916;-66
2022/09/12 07:21:07;;;;;;;;;;;24.70;49.60;23.40;101235.00;;;;5100259;27;19920;-66
2022/09/12 07:23:59;;;;;;;;;;;24.70;49.50;23.40;101237.00;;;;5091742;28;20002;-66
2022/09/12 07:26:45;;;;;;;;;;;24.60;49.50;23.40;101243.00;;;;5087947;28;19920;-66
2022/09/12 07:29:31;;;;;;;;;;;24.70;49.50;23.40;101236.00;;;;5104829;27;19912;-66
2022/09/12 07:32:17;;;;;;;;;;;24.70;49.50;23.40;101236.00;;;;5083438;27;19973;-66
2022/09/12 07:35:03;;;;;;;;;;;24.60;49.40;23.40;101232.00;;;;5092956;28;20127;-66
2022/09/12 07:37:49;;;;;;;;;;;24.70;49.50;23.40;101233.00;;;;5094286;28;19916;-67
2022/09/12 07:40:35;;;;;;;;;;;24.70;49.50;23.40;101234.00;;;;5098862;27;19912;-66
2022/09/12 07:43:22;;;;;;;;;;;24.70;49.50;23.40;101231.00;;;;5098317;28;19912;-66
2022/09/12 07:46:08;;;;;;;;;;;24.60;49.50;23.40;101236.00;;;;5084289;28;19966;-66
2022/09/12 07:48:55;;;;;;;;;;;24.70;49.50;23.40;101242.00;;;;5080960;28;19916;-66
2022/09/12 07:51:41;;;;;;;;;;;24.70;49.50;23.40;101239.00;;;;5083318;27;19962;-66
2022/09/12 07:54:27;;;;;;;;;;;24.70;49.50;23.40;101239.00;;;;5101367;27;19916;-66
2022/09/12 07:57:14;;;;;;;;;;;24.70;49.50;23.40;101243.00;;;;5096335;27;20397;-66
2022/09/12 08:00:00;;;;;;;;;;;24.70;49.50;23.40;101235.00;;;;5097219;27;19954;-66
2022/09/12 08:02:50;;;;;;;;;;;24.70;49.50;23.40;101247.00;;;;5097269;27;19963;-66
2022/09/12 08:05:36;;;;;;;;;;;24.60;49.40;23.40;101242.00;;;;5097401;27;19920;-66
2022/09/12 08:08:22;;;;;;;;;;;24.70;49.50;23.40;101246.00;;;;5100838;27;19918;-66
2022/09/12 08:11:10;;;;;;;;;;;24.70;49.50;23.40;101240.00;;;;5094555;27;19912;-66
2022/09/12 08:13:56;;;;;;;;;;;24.70;49.50;23.40;101236.00;;;;5096133;27;19999;-66
2022/09/12 08:16:43;;;;;;;;;;;24.70;49.50;23.40;101242.00;;;;5093775;27;20186;-66
2022/09/12 08:19:30;;;;;;;;;;;24.80;49.50;23.40;101248.00;;;;5098983;27;19913;-66
2022/09/12 08:22:20;;;;;;;;;;;24.70;49.50;23.40;101243.00;;;;5099231;27;20569;-66
2022/09/12 08:25:07;;;;;;;;;;;24.70;49.50;23.40;101242.00;;;;5092503;28;19942;-66
2022/09/12 08:27:54;;;;;;;;;;;24.70;49.50;23.40;101242.00;;;;5092327;27;19915;-67
2022/09/12 08:30:40;;;;;;;;;;;24.70;49.40;23.40;101240.00;;;;5091641;27;19916;-66
2022/09/12 08:33:31;;;;;;;;;;;24.70;49.50;23.40;101236.00;;;;5097573;27;20381;-66
2022/09/12 08:36:19;;;;;;;;;;;24.70;49.50;23.40;101235.00;;;;5098388;27;19916;-66
2022/09/12 08:39:05;;;;;;;;;;;24.70;49.50;23.40;101237.00;;;;5093865;27;19920;-66
2022/09/12 08:42:01;;;;;;;;;;;24.70;49.50;23.40;101238.00;;;;5094038;28;19920;-66
2022/09/12 08:45:26;;;;;;;;;;;24.70;49.50;23.40;101236.00;;;;5094393;28;19938;-66
2022/09/12 08:48:12;;;;;;;;;;;24.70;49.50;23.40;101231.00;;;;5097527;27;19962;-66
2022/09/12 08:50:58;;;;;;;;;;;24.70;49.40;23.50;101233.00;;;;5107869;27;19912;-66
2022/09/12 08:53:46;;;;;;;;;;;24.70;49.40;23.40;101233.00;;;;5093365;28;19961;-66
2022/09/12 08:56:34;;;;;;;;;;;24.80;49.50;23.50;101238.00;;;;5099382;28;19979;-67
2022/09/12 08:59:20;;;;;;;;;;;24.70;49.50;23.50;101240.00;;;;5080745;28;20369;-66
2022/09/12 09:02:44;;;;;;;;;;;24.80;49.50;23.50;101234.00;;;;5094076;28;20501;-66
2022/09/12 09:05:53;;;;;;;;;;;24.70;49.40;23.50;101233.00;;;;5102923;28;20011;-66
2022/09/12 09:08:50;;;;;;;;;;;24.80;49.50;23.50;101234.00;;;;5074362;28;19911;-66
2022/09/12 09:11:58;;;;;;;;;;;24.80;49.50;23.50;101241.00;;;;5088911;28;20405;-66
2022/09/12 09:15:00;;;;;;;;;;;24.80;49.50;23.50;101242.00;;;;5100318;28;19911;-66
2022/09/12 09:17:48;;;;;;;;;;;24.80;49.60;23.50;101240.00;;;;5098303;28;19956;-66
2022/09/12 09:20:44;;;;;;;;;;;24.70;49.40;23.50;101228.00;;;;5102333;28;19912;-66
2022/09/12 09:23:41;;;;;;;;;;;24.80;49.50;23.50;101224.00;;;;5088739;28;20260;-66
2022/09/12 09:26:30;;;;;;;;;;;24.80;49.50;23.50;101222.00;;;;5082945;28;20002;-66
2022/09/12 09:29:21;;;;;;;;;;;24.80;49.50;23.50;101214.00;;;;5083009;28;19919;-66
2022/09/12 09:32:14;;;;;;;;;;;24.80;49.50;23.50;101217.00;;;;5095275;27;19916;-66
2022/09/12 09:35:01;;;;;;;;;;;24.80;49.50;23.50;101213.00;;;;5084020;28;20003;-66
2022/09/12 09:38:12;;;;;;;;;;;24.80;49.50;23.50;101213.00;;;;5103931;27;19916;-66
2022/09/12 09:41:20;;;;;;;;;;;24.80;49.40;23.50;101203.00;;;;5097770;27;19923;-66
2022/09/12 09:44:06;;;;;;;;;;;24.80;49.40;23.50;101198.00;;;;5108368;27;19998;-66
2022/09/12 09:46:53;;;;;;;;;;;24.80;49.50;23.50;101194.00;;;;5089192;27;19912;-66
2022/09/12 09:49:39;;;;;;;;;;;24.80;49.40;23.50;101193.00;;;;5091688;27;19911;-66
2022/09/12 09:52:27;;;;;;;;;;;24.80;49.50;23.50;101202.00;;;;5087577;27;19915;-66
2022/09/12 09:55:16;;;;;;;;;;;24.80;49.40;23.50;101197.00;;;;5099720;27;19918;-66
2022/09/12 09:58:02;;;;;;;;;;;24.80;49.40;23.50;101199.00;;;;5077403;28;20273;-66
2022/09/12 10:00:48;;;;;;;;;;;24.80;49.40;23.50;101188.00;;;;5073080;28;19965;-67
2022/09/12 10:03:38;;;;;;;;;;;24.80;49.40;23.50;101192.00;;;;5096030;28;19911;-66
2022/09/12 10:06:31;;;;;;;;;;;24.80;49.40;23.50;101181.00;;;;5087200;28;19916;-66
2022/09/12 10:09:19;;;;;;;;;;;24.90;49.40;23.50;101189.00;;;;5098281;28;20198;-66
2022/09/12 10:12:27;;;;;;;;;;;24.90;49.40;23.50;101183.00;;;;5104429;27;19977;-66
2022/09/12 10:15:20;;;;;;;;;;;24.80;49.40;23.50;101182.00;;;;5077245;28;19919;-66
2022/09/12 10:18:06;;;;;;;;;;;24.90;49.40;23.50;101183.00;;;;5094317;27;20372;-66
2022/09/12 10:20:52;;;;;;;;;;;24.90;49.40;23.60;101182.00;;;;5090161;27;19950;-67
2022/09/12 10:23:40;;;;;;;;;;;24.90;49.40;23.50;101180.00;;;;5089523;27;20357;-66
2022/09/12 10:26:26;;;;;;;;;;;24.90;49.30;23.60;101171.00;;;;5105468;27;19931;-66
2022/09/12 10:29:30;;;;;;;;;;;24.90;49.40;23.60;101168.00;;;;5092181;27;19911;-66
2022/09/12 10:32:33;;;;;;;;;;;24.90;49.40;23.60;101166.00;;;;5092558;27;20364;-66
2022/09/12 10:35:32;;;;;;;;;;;24.90;49.40;23.60;101157.00;;;;5090914;27;20218;-66
2022/09/12 10:38:24;;;;;;;;;;;24.90;49.40;23.60;101154.00;;;;5104711;27;19922;-66
2022/09/12 10:41:10;;;;;;;;;;;24.90;49.40;23.60;101150.00;;;;5106188;27;19920;-66
2022/09/12 10:44:05;;;;;;;;;;;24.90;49.40;23.60;101157.00;;;;5106189;27;20260;-66
2022/09/12 10:46:53;;;;;;;;;;;24.90;49.40;23.60;101146.00;;;;5094603;27;20609;-66
2022/09/12 10:49:39;;;;;;;;;;;24.90;49.40;23.60;101144.00;;;;5085570;27;19958;-66
2022/09/12 10:52:26;;;;;;;;;;;25.00;49.40;23.60;101140.00;;;;5113972;27;19966;-66
2022/09/12 10:55:15;;;;;;;;;;;24.90;49.30;23.60;101138.00;;;;5102450;27;20442;-66
2022/09/12 10:58:15;;;;;;;;;;;24.90;49.30;23.60;101138.00;;;;5104267;27;20636;-66
2022/09/12 11:01:30;;;;;;;;;;;25.00;49.40;23.60;101130.00;;;;5088959;28;19916;-66
2022/09/12 11:04:19;;;;;;;;;;;25.00;49.40;23.60;101143.00;;;;5089713;27;19916;-67
2022/09/12 11:07:33;;;;;;;;;;;25.00;49.40;23.60;101137.00;;;;5101175;27;20400;-66
2022/09/12 11:10:40;;;;;;;;;;;25.00;49.40;23.60;101139.00;;;;5098540;27;19919;-66
2022/09/12 11:13:48;;;;;;;;;;;25.00;49.40;23.60;101130.00;;;;5089762;27;19916;-66
2022/09/12 11:16:37;;;;;;;;;;;25.00;49.40;23.60;101124.00;;;;5089836;27;20622;-67
2022/09/12 11:19:55;;;;;;;;;;;25.00;49.40;23.60;101125.00;;;;5096850;27;19999;-66
2022/09/12 11:23:15;;;;;;;;;;;25.00;49.40;23.60;101123.00;;;;5102791;27;20256;-66
2022/09/12 11:26:07;;;;;;;;;;;25.00;49.40;23.60;101113.00;;;;5091314;28;19956;-66
2022/09/12 11:28:53;;;;;;;;;;;25.00;49.40;23.60;101120.00;;;;5104125;27;19920;-66
2022/09/12 11:32:13;;;;;;;;;;;25.00;49.40;23.70;101112.00;;;;5101896;27;19916;-66
2022/09/12 11:35:14;;;;;;;;;;;25.00;49.40;23.70;101107.00;;;;5068387;28;20387;-66
2022/09/12 11:38:28;;;;;;;;;;;25.10;49.40;23.70;101094.00;;;;5102092;27;20407;-66
2022/09/12 11:41:19;;;;;;;;;;;25.10;49.40;23.70;101107.00;;;;5098328;27;19918;-67
2022/09/12 11:44:20;;;;;;;;;;;25.20;49.50;23.70;101093.00;;;;5105982;27;19916;-66
2022/09/12 11:47:07;;;;;;;;;;;25.10;50.10;23.70;101094.00;;;;5075411;28;20352;-67
2022/09/12 11:49:53;;;;;;;;;;;25.10;49.40;23.70;101096.00;;;;5086069;28;19998;-66
2022/09/12 11:52:39;;;;;;;;;;;25.10;49.40;23.70;101090.00;;;;5111674;27;20320;-66
2022/09/12 11:55:27;;;;;;;;;;;25.10;49.30;23.70;101100.00;;;;5099053;27;19912;-66
2022/09/12 11:58:13;;;;;;;;;;;25.20;49.40;23.70;101082.00;;;;5080031;27;19916;-66
2022/09/12 12:01:11;;;;;;;;;;;25.20;49.30;23.70;101099.00;;;;5085155;28;20300;-66
2022/09/12 12:03:57;;;;;;;;;;;25.20;49.40;23.70;101087.00;;;;5081696;28;19965;-66
2022/09/12 12:06:48;;;;;;;;;;;25.20;49.30;23.70;101083.00;;;;5093867;27;19911;-66
2022/09/12 12:09:35;;;;;;;;;;;25.20;49.30;23.70;101085.00;;;;5101126;27;19918;-67
2022/09/12 12:12:23;;;;;;;;;;;25.20;49.20;23.70;101081.00;;;;5084240;28;19918;-66
2022/09/12 12:15:12;;;;;;;;;;;25.30;49.30;23.70;101081.00;;;;5088353;27;19956;-66
2022/09/12 12:18:00;;;;;;;;;;;25.20;49.20;23.80;101080.00;;;;5083876;28;19954;-66
2022/09/12 12:20:46;;;;;;;;;;;25.20;49.20;23.80;101077.00;;;;5097567;27;20397;-66
2022/09/12 12:23:33;;;;;;;;;;;25.20;49.20;23.80;101065.00;;;;5098950;27;19911;-66
2022/09/12 12:26:39;;;;;;;;;;;25.20;49.20;23.80;101067.00;;;;5096522;27;19912;-66
2022/09/12 12:29:39;;;;;;;;;;;25.20;49.20;23.80;101061.00;;;;5077979;28;19911;-66
2022/09/12 12:32:25;;;;;;;;;;;25.20;49.10;23.80;101055.00;;;;5108687;27;19916;-66
2022/09/12 12:35:49;;;;;;;;;;;25.30;49.20;23.80;101053.00;;;;5092902;28;19938;-67
2022/09/12 12:38:37;;;;;;;;;;;25.20;49.10;23.80;101048.00;;;;5096877;27;19920;-66
2022/09/12 12:41:52;;;;;;;;;;;25.30;49.20;23.80;101040.00;;;;5081243;28;19924;-66
2022/09/12 12:44:46;;;;;;;;;;;25.30;49.10;23.80;101040.00;;;;5085141;28;19916;-66
2022/09/12 12:47:35;;;;;;;;;;;25.30;49.10;23.80;101040.00;;;;5100133;28;19919;-66
2022/09/12 12:50:25;;;;;;;;;;;25.30;49.10;23.80;101045.00;;;;5094845;28;19916;-66
2022/09/12 12:53:20;;;;;;;;;;;25.30;49.00;23.80;101048.00;;;;5091372;28;20357;-66
2022/09/12 12:56:44;;;;;;;;;;;25.30;49.10;23.80;101043.00;;;;5096279;28;19962;-66
2022/09/12 12:59:30;;;;;;;;;;;25.30;49.00;23.80;101037.00;;;;5092903;28;19926;-66
2022/09/12 13:02:33;;;;;;;;;;;25.30;49.00;23.80;101029.00;;;;5093240;28;19951;-66
2022/09/12 13:05:20;;;;;;;;;;;25.30;49.00;23.80;101033.00;;;;5083859;28;19922;-66
2022/09/12 13:08:16;;;;;;;;;;;25.30;49.00;23.80;101025.00;;;;5098472;28;20038;-66
2022/09/12 13:11:14;;;;;;;;;;;25.30;49.00;23.80;101030.00;;;;5099476;27;19911;-66
2022/09/12 13:14:03;;;;;;;;;;;25.30;49.00;23.80;101023.00;;;;5105425;27;19916;-66
2022/09/12 13:16:53;;;;;;;;;;;25.40;49.10;23.80;101017.00;;;;5100811;27;19918;-66
2022/09/12 13:19:39;;;;;;;;;;;25.30;49.00;23.90;101014.00;;;;5092470;28;20319;-66
2022/09/12 13:22:42;;;;;;;;;;;25.30;49.00;23.90;101016.00;;;;5107500;27;20384;-66
2022/09/12 13:25:29;;;;;;;;;;;25.30;49.00;23.80;101006.00;;;;5080879;27;19915;-66
2022/09/12 13:28:17;;;;;;;;;;;25.30;48.90;23.90;101010.00;;;;5108773;27;19923;-66
2022/09/12 13:31:29;;;;;;;;;;;25.30;48.90;23.90;101001.00;;;;5095645;28;19961;-66
2022/09/12 13:34:35;;;;;;;;;;;25.40;49.00;23.90;100999.00;;;;5090404;27;19915;-66
2022/09/12 13:37:44;;;;;;;;;;;25.40;49.00;23.90;101001.00;;;;5094749;27;19919;-66
2022/09/12 13:40:52;;;;;;;;;;;25.40;48.90;23.90;101003.00;;;;5093606;27;19939;-66
2022/09/12 13:43:40;;;;;;;;;;;25.40;48.90;23.90;100997.00;;;;5109323;27;20375;-66
2022/09/12 13:46:28;;;;;;;;;;;25.30;48.80;23.90;100995.00;;;;5090943;28;20701;-66
2022/09/12 13:49:30;;;;;;;;;;;25.40;48.80;23.90;100991.00;;;;5115674;27;19912;-66